createdAt,value
2022-09-12T00:02:29.129Z,100951.63
2022-09-12T00:05:00.018Z,100944.50
2022-09-12T00:07:30.987Z,100954.72
2022-09-12T00:10:01.549Z,100959.59
2022-09-12T00:12:32.473Z,100962.66
2022-09-12T00:15:03.350Z,100955.00
2022-09-12T00:17:34.039Z,100961.84
2022-09-12T00:20:05.279Z,100970.13
2022-09-12T00:22:36.416Z,100973.69
2022-09-12T00:25:08.457Z,100977.56
2022-09-12T00:27:39.166Z,100986.34
2022-09-12T00:30:10.341Z,100986.34
2022-09-12T00:32:41.278Z,100990.22
2022-09-12T00:35:11.985Z,100999.06
2022-09-12T00:37:42.790Z,101003.97
2022-09-12T00:40:14.050Z,101008.69
2022-09-12T00:42:44.871Z,101014.19
2022-09-12T00:45:29.547Z,101020.19
2022-09-12T00:48:05.133Z,101023.28
2022-09-12T00:50:36.509Z,101031.53
2022-09-12T00:53:09.267Z,101041.13
2022-09-12T00:55:44.534Z,101039.19
2022-09-12T00:58:22.898Z,101059.59
2022-09-12T01:00:54.396Z,101067.03
2022-09-12T01:03:27.760Z,101072.25
2022-09-12T01:06:31.192Z,101075.00
2022-09-12T01:09:06.421Z,101077.78
2022-09-12T01:11:42.817Z,101070.63
2022-09-12T01:14:13.853Z,101071.22
2022-09-12T01:16:44.954Z,101063.28
2022-09-12T01:19:45.875Z,101073.19
2022-09-12T01:22:34.654Z,101078.19
2022-09-12T01:25:33.160Z,101073.19
2022-09-12T01:28:28.878Z,101072.34
2022-09-12T01:31:25.147Z,101088.06
2022-09-12T01:34:10.976Z,101086.97
2022-09-12T01:36:53.684Z,101077.84
2022-09-12T01:39:38.721Z,101086.63
2022-09-12T01:42:44.991Z,101089.41
2022-09-12T01:45:44.147Z,101089.41
2022-09-12T01:48:25.698Z,101091.03
2022-09-12T01:51:21.006Z,101087.97
2022-09-12T01:54:00.013Z,101073.06
2022-09-12T01:56:34.152Z,101072.88
2022-09-12T01:59:14.074Z,101071.44
2022-09-12T02:01:57.604Z,101080.81
2022-09-12T02:05:16.641Z,101082.16
2022-09-12T02:07:52.794Z,101092.06
2022-09-12T02:10:32.883Z,101090.44
2022-09-12T02:13:26.764Z,101078.28
2022-09-12T02:16:04.857Z,101081.66
2022-09-12T02:18:37.144Z,101085.72
2022-09-12T02:21:09.957Z,101084.59
2022-09-12T02:23:48.936Z,101087.09
2022-09-12T02:26:45.341Z,101082.69
2022-09-12T02:29:16.185Z,101085.44
2022-09-12T02:31:54.695Z,101089.03
2022-09-12T02:34:42.507Z,101087.31
2022-09-12T02:37:48.935Z,101084.53
2022-09-12T02:40:21.094Z,101083.72
2022-09-12T02:42:53.237Z,101082.06
2022-09-12T02:45:26.045Z,101083.44
2022-09-12T02:48:00.918Z,101081.47
2022-09-12T02:50:32.219Z,101080.16
2022-09-12T02:53:07.567Z,101076.78
2022-09-12T02:55:41.538Z,101077.91
2022-09-12T02:58:18.701Z,101077.91
2022-09-12T03:01:00.639Z,101077.59
2022-09-12T03:04:15.166Z,101067.88
2022-09-12T03:07:01.839Z,101068.22
2022-09-12T03:09:50.937Z,101067.88
2022-09-12T03:12:21.517Z,101075.34
2022-09-12T03:14:57.798Z,101067.59
2022-09-12T03:17:33.987Z,101069.25
2022-09-12T03:20:19.730Z,101073.13
2022-09-12T03:22:59.222Z,101073.91
2022-09-12T03:25:41.198Z,101083.53
2022-09-12T03:28:18.665Z,101080.25
2022-09-12T03:30:51.549Z,101084.34
2022-09-12T03:33:25.317Z,101083.81
2022-09-12T03:35:57.939Z,101088.53
2022-09-12T03:38:28.717Z,101080.78
2022-09-12T03:40:59.558Z,101076.38
2022-09-12T03:43:30.289Z,101084.03
2022-09-12T03:46:01.405Z,101081.91
2022-09-12T03:48:32.110Z,101082.41
2022-09-12T03:51:08.282Z,101074.16
2022-09-12T03:53:39.108Z,101069.44
2022-09-12T03:56:14.881Z,101059.25
2022-09-12T03:58:45.694Z,101060.84
2022-09-12T04:01:19.305Z,101054.53
2022-09-12T04:03:53.350Z,101054.53
2022-09-12T04:06:25.694Z,101049.53
2022-09-12T04:08:58.240Z,101049.22
2022-09-12T04:11:29.058Z,101051.97
2022-09-12T04:13:59.846Z,101043.69
2022-09-12T04:16:30.896Z,101048.09
2022-09-12T04:19:02.676Z,101039.81
2022-09-12T04:21:34.091Z,101045.34
2022-09-12T04:24:04.594Z,101050.25
2022-09-12T04:26:35.546Z,101044.72
2022-09-12T04:29:06.339Z,101043.09
2022-09-12T04:31:37.358Z,101032.06
2022-09-12T04:34:08.372Z,101026.56
2022-09-12T04:36:40.123Z,101023.00
2022-09-12T04:39:11.273Z,101017.97
2022-09-12T04:41:42.600Z,101014.41
2022-09-12T04:44:17.860Z,101006.94
2022-09-12T04:46:50.677Z,101012.44
2022-09-12T04:49:22.052Z,100997.06
2022-09-12T04:51:56.189Z,100994.00
2022-09-12T04:54:27.043Z,100995.31
2022-09-12T04:56:57.870Z,100993.38
2022-09-12T04:59:30.319Z,100990.63
2022-09-12T05:02:01.497Z,100983.16
2022-09-12T05:04:32.406Z,100976.84
2022-09-12T05:07:03.306Z,100980.41
2022-09-12T05:09:34.659Z,100983.97
2022-09-12T05:12:06.258Z,100977.34
2022-09-12T05:14:37.474Z,100982.03
2022-09-12T05:17:08.694Z,100970.19
2022-09-12T05:19:39.780Z,100961.59
2022-09-12T05:22:10.516Z,100965.19
2022-09-12T05:24:42.053Z,100962.44
2022-09-12T05:27:13.175Z,100959.69
2022-09-12T05:29:43.972Z,100949.47
2022-09-12T05:32:15.360Z,100934.56
2022-09-12T05:34:45.905Z,100939.75
2022-09-12T05:37:16.857Z,100937.31
2022-09-12T05:39:48.787Z,100942.00
2022-09-12T05:42:19.583Z,100931.47
2022-09-12T05:44:50.337Z,100928.72
2022-09-12T05:47:21.721Z,100918.50
2022-09-12T05:49:53.882Z,100919.31
2022-09-12T05:52:24.795Z,100911.03
2022-09-12T05:54:55.470Z,100903.91
2022-09-12T05:57:26.397Z,100906.66
2022-09-12T05:59:57.284Z,100902.78
2022-09-12T06:02:28.234Z,100886.75
2022-09-12T06:04:59.061Z,100884.59
2022-09-12T06:07:29.928Z,100874.41
2022-09-12T06:10:01.919Z,100871.03
2022-09-12T06:12:33.064Z,100870.19
2022-09-12T06:15:03.932Z,100869.91
2022-09-12T06:17:35.192Z,100882.53
2022-09-12T06:20:06.743Z,100867.94
2022-09-12T06:22:37.528Z,100856.13
2022-09-12T06:25:08.564Z,100860.47
2022-09-12T06:27:39.325Z,100851.91
2022-09-12T06:30:10.579Z,100845.56
2022-09-12T06:32:41.073Z,100840.06
2022-09-12T06:35:13.098Z,100827.09
2022-09-12T06:37:46.867Z,100818.81
2022-09-12T06:40:17.823Z,100813.31
2022-09-12T06:42:48.755Z,100806.16
2022-09-12T06:45:35.270Z,100792.38
2022-09-12T06:48:06.287Z,100778.59
2022-09-12T06:50:37.180Z,100776.34
2022-09-12T06:53:07.993Z,100769.19
2022-09-12T06:55:38.974Z,100766.94
2022-09-12T06:58:09.938Z,100755.09
2022-09-12T07:00:41.364Z,100763.06
2022-09-12T07:03:12.757Z,100749.56
2022-09-12T07:05:43.169Z,100748.16
2022-09-12T07:08:13.975Z,100742.63
2022-09-12T07:10:44.635Z,100743.44
2022-09-12T07:13:16.589Z,100746.19
2022-09-12T07:15:47.397Z,100738.25
2022-09-12T07:18:18.270Z,100740.66
2022-09-12T07:20:49.227Z,100728.84
2022-09-12T07:23:20.086Z,100730.78
2022-09-12T07:26:01.019Z,100727.22
2022-09-12T07:28:34.350Z,100726.09
2022-09-12T07:31:17.317Z,100723.34
2022-09-12T07:33:52.372Z,100717.00
2022-09-12T07:36:30.191Z,100714.56
2022-09-12T07:39:01.744Z,100713.09
2022-09-12T07:41:35.477Z,100708.72
2022-09-12T07:44:09.414Z,100709.22
2022-09-12T07:46:41.155Z,100700.63
2022-09-12T07:49:12.101Z,100700.94
2022-09-12T07:51:43.824Z,100705.84
2022-09-12T07:54:14.687Z,100699.81
2022-09-12T07:56:45.526Z,100693.97
2022-09-12T07:59:25.510Z,100692.34
2022-09-12T08:02:07.306Z,100684.56
2022-09-12T08:04:39.164Z,100676.13
2022-09-12T08:07:09.956Z,100675.00
2022-09-12T08:09:40.902Z,100646.59
2022-09-12T08:12:11.995Z,100647.94
2022-09-12T08:14:42.866Z,100640.78
2022-09-12T08:17:13.601Z,100636.06
2022-09-12T08:19:44.596Z,100628.63
2022-09-12T08:22:16.439Z,100627.78
2022-09-12T08:24:47.448Z,100621.16
2022-09-12T08:27:19.019Z,100621.16
2022-09-12T08:29:50.023Z,100612.88
2022-09-12T08:32:20.806Z,100605.94
2022-09-12T08:34:51.944Z,100601.56
2022-09-12T08:37:22.823Z,100610.63
2022-09-12T08:39:55.762Z,100616.97
2022-09-12T08:42:57.671Z,100609.00
2022-09-12T08:45:57.190Z,100624.09
2022-09-12T08:48:28.155Z,100620.03
2022-09-12T08:50:59.258Z,100617.75
2022-09-12T08:53:33.193Z,100620.53
2022-09-12T08:56:06.440Z,100623.91
2022-09-12T08:58:42.367Z,100629.91
2022-09-12T09:01:36.051Z,100627.00
2022-09-12T09:04:40.255Z,100619.22
2022-09-12T09:07:52.179Z,100631.88
2022-09-12T09:10:41.348Z,100631.69
2022-09-12T09:14:10.794Z,100641.91
2022-09-12T09:16:51.490Z,100621.94
2022-09-12T09:19:48.828Z,100613.97
2022-09-12T09:22:38.359Z,100619.50
2022-09-12T09:25:23.105Z,100630.06
2022-09-12T09:28:10.133Z,100636.69
2022-09-12T09:30:49.674Z,100643.63
2022-09-12T09:33:31.069Z,100632.44
2022-09-12T09:36:14.204Z,100644.25
2022-09-12T09:38:54.223Z,100650.28
2022-09-12T09:41:43.217Z,100649.78
2022-09-12T09:44:14.415Z,100655.63
2022-09-12T09:46:45.343Z,100664.53
2022-09-12T09:49:19.013Z,100674.75
2022-09-12T09:51:50.636Z,100679.94
2022-09-12T09:54:29.410Z,100687.69
2022-09-12T09:57:00.278Z,100683.63
2022-09-12T09:59:34.041Z,100684.16
2022-09-12T10:02:25.972Z,100695.16
2022-09-12T10:05:01.524Z,100696.81
2022-09-12T10:07:32.309Z,100703.44
2022-09-12T10:10:19.154Z,100709.25
2022-09-12T10:12:49.974Z,100708.44
2022-09-12T10:15:28.853Z,100711.72
2022-09-12T10:18:01.621Z,100717.03
2022-09-12T10:20:36.683Z,100715.09
2022-09-12T10:23:32.882Z,100707.94
2022-09-12T10:26:07.887Z,100719.47
2022-09-12T10:28:51.170Z,100713.47
2022-09-12T10:31:32.793Z,100720.94
2022-09-12T10:34:04.119Z,100720.94
2022-09-12T10:36:41.567Z,100705.19
2022-09-12T10:39:21.405Z,100714.28
2022-09-12T10:41:52.364Z,100721.72
2022-09-12T10:44:33.390Z,100727.25
2022-09-12T10:47:23.952Z,100728.38
2022-09-12T10:49:54.946Z,100725.31
2022-09-12T10:52:27.581Z,100721.72
2022-09-12T10:54:58.586Z,100725.31
2022-09-12T10:58:05.055Z,100725.59
2022-09-12T11:00:42.631Z,100730.81
2022-09-12T11:03:25.398Z,100725.31
2022-09-12T11:06:03.246Z,100736.63
2022-09-12T11:08:58.656Z,100738.59
2022-09-12T11:11:44.569Z,100743.28
2022-09-12T11:14:28.222Z,100746.03
2022-09-12T11:16:59.020Z,100747.16
2022-09-12T11:19:49.897Z,100757.38
2022-09-12T11:22:31.857Z,100754.28
2022-09-12T11:25:32.838Z,100758.19
2022-09-12T11:28:29.049Z,100755.94
2022-09-12T11:31:37.243Z,100762.56
2022-09-12T11:34:19.296Z,100771.16
2022-09-12T11:37:26.634Z,100775.84
2022-09-12T11:40:03.015Z,100778.94
2022-09-12T11:42:38.380Z,100780.88
2022-09-12T11:45:38.894Z,100775.38
2022-09-12T11:48:17.521Z,100773.41
2022-09-12T11:50:48.372Z,100779.72
2022-09-12T11:53:26.167Z,100786.06
2022-09-12T11:56:21.238Z,100788.50
2022-09-12T11:59:28.035Z,100800.97
2022-09-12T12:02:05.406Z,100806.47
2022-09-12T12:04:46.885Z,100810.53
2022-09-12T12:07:18.021Z,100812.78
2022-09-12T12:09:54.719Z,100818.31
2022-09-12T13:45:56.868Z,100957.13
2022-09-12T13:48:28.782Z,100955.72
2022-09-12T13:51:03.540Z,100960.00
2022-09-12T13:53:46.969Z,100967.16
2022-09-12T13:56:22.733Z,100970.41
2022-09-12T13:59:01.035Z,100984.38
2022-09-12T14:01:49.514Z,100986.25
2022-09-12T14:04:44.169Z,100985.41
2022-09-12T14:07:23.044Z,101001.88
2022-09-12T14:09:59.750Z,101010.66
2022-09-12T14:12:42.903Z,101017.38
2022-09-12T14:15:27.159Z,101027.47
2022-09-12T14:18:04.110Z,101027.19
2022-09-12T14:20:39.402Z,101025.56
2022-09-12T14:23:24.137Z,101032.38
2022-09-12T14:25:54.977Z,101046.75
2022-09-12T14:28:27.228Z,101042.88
2022-09-12T14:31:09.852Z,101049.75
2022-09-12T14:33:58.635Z,101047.38
2022-09-12T14:36:35.025Z,101049.53
2022-09-12T14:39:20.575Z,101057.28
2022-09-12T14:41:52.881Z,101058.91
2022-09-12T14:44:27.968Z,101053.13
2022-09-12T14:47:03.515Z,101050.22
2022-09-12T14:49:37.845Z,101054.53
2022-09-12T14:52:12.794Z,101064.13
2022-09-12T14:54:45.568Z,101058.91
2022-09-12T14:57:42.861Z,101057.28
2022-09-12T15:00:16.897Z,101059.94
2022-09-12T15:02:48.049Z,101064.03
2022-09-12T15:05:24.939Z,101064.13
2022-09-12T15:08:00.785Z,101064.94
2022-09-12T15:10:40.730Z,101068.00
2022-09-12T15:13:19.274Z,101073.50
2022-09-12T15:15:53.343Z,101077.91
2022-09-12T15:18:26.132Z,101082.59
2022-09-12T15:21:08.671Z,101074.44
2022-09-12T15:23:50.211Z,101078.22
2022-09-12T15:26:24.973Z,101082.41
2022-09-12T15:28:56.802Z,101085.16
2022-09-12T15:31:33.384Z,101088.44
2022-09-12T15:34:05.249Z,101092.50
2022-09-12T15:36:36.138Z,101098.81
2022-09-12T15:39:07.428Z,101093.94
2022-09-12T15:41:40.732Z,101090.06
2022-09-12T15:44:15.172Z,101103.84
2022-09-12T15:46:46.184Z,101093.94
2022-09-12T15:49:17.352Z,101093.53
2022-09-12T15:51:48.074Z,101096.69
2022-09-12T15:54:21.419Z,101095.06
2022-09-12T15:56:53.018Z,101092.09
2022-09-12T15:59:24.076Z,101093.22
2022-09-12T16:01:55.017Z,101096.78
2022-09-12T16:04:28.189Z,101088.84
2022-09-12T16:06:59.926Z,101084.13
2022-09-12T16:09:30.651Z,101065.13
2022-09-12T16:12:01.504Z,101065.13
2022-09-12T16:14:32.410Z,101062.38
2022-09-12T16:17:03.206Z,101049.72
2022-09-12T16:19:33.910Z,101047.81
2022-09-12T16:22:04.883Z,101051.38
2022-09-12T16:24:35.868Z,101051.69
2022-09-12T16:27:07.229Z,101048.59
2022-09-12T16:29:38.170Z,101048.09
2022-09-12T16:32:09.449Z,101035.94
2022-09-12T16:34:40.366Z,101037.56
2022-09-12T16:37:11.242Z,101035.94
2022-09-12T16:39:42.443Z,101039.81
2022-09-12T16:42:13.468Z,101047.56
2022-09-12T16:44:44.474Z,101043.69
2022-09-12T16:47:15.785Z,101053.59
2022-09-12T16:49:46.973Z,101057.47
2022-09-12T16:52:19.447Z,101056.38
2022-09-12T16:54:50.376Z,101051.97
2022-09-12T16:57:21.005Z,101055.56
2022-09-12T16:59:52.483Z,101050.84
2022-09-12T17:02:23.453Z,101049.22
2022-09-12T17:04:55.365Z,101051.97
2022-09-12T17:07:26.625Z,101046.78
2022-09-12T17:09:57.533Z,101036.56
2022-09-12T17:12:28.716Z,101037.38
2022-09-12T17:14:59.578Z,101039.31
2022-09-12T17:17:30.608Z,101033.28
2022-09-12T17:20:01.250Z,101033.59
2022-09-12T17:22:32.234Z,101028.94
2022-09-12T17:25:02.915Z,101022.25
2022-09-12T17:27:33.885Z,101014.00
2022-09-12T17:30:04.902Z,101009.63
2022-09-12T17:32:35.661Z,101002.97
2022-09-12T17:35:06.455Z,101007.69
2022-09-12T17:37:38.833Z,100991.47
2022-09-12T17:40:10.399Z,100999.41
2022-09-12T17:42:41.737Z,100988.69
2022-09-12T17:45:15.127Z,100982.88
2022-09-12T17:47:48.903Z,100985.94
2022-09-12T17:50:31.682Z,100986.75
2022-09-12T17:53:03.377Z,100992.25
2022-09-12T17:55:35.083Z,100989.00
2022-09-12T17:58:06.774Z,100994.22
2022-09-12T18:00:56.437Z,100996.97
2022-09-12T18:03:28.020Z,100993.09
2022-09-12T18:05:59.805Z,100988.69
2022-09-12T18:08:30.721Z,100990.63
2022-09-12T18:11:08.330Z,100986.56
2022-09-12T18:13:39.132Z,100983.81
2022-09-12T18:16:12.503Z,100983.47
2022-09-12T18:18:44.083Z,100979.41
2022-09-12T18:21:15.478Z,100968.38
2022-09-12T18:23:45.895Z,100962.88
2022-09-12T18:26:17.085Z,100954.59
2022-09-12T18:28:48.004Z,100947.16
2022-09-12T18:31:21.323Z,100950.22
2022-09-12T18:33:52.540Z,100944.72
2022-09-12T18:36:23.888Z,100944.72
2022-09-12T18:38:54.663Z,100946.34
2022-09-12T18:41:27.588Z,100948.78
2022-09-12T18:44:03.087Z,100963.16
2022-09-12T18:46:35.850Z,100957.38
2022-09-12T18:49:07.400Z,100957.16
2022-09-12T18:51:40.002Z,100944.53
2022-09-12T18:54:15.864Z,100940.63
2022-09-12T18:56:48.307Z,100936.25
2022-09-12T18:59:19.330Z,100934.00
2022-09-12T19:01:50.781Z,100943.41
2022-09-12T19:04:21.334Z,100930.41
2022-09-12T19:06:52.238Z,100937.06
2022-09-12T19:09:23.690Z,100935.41
2022-09-12T19:11:55.301Z,100935.41
2022-09-12T19:14:28.613Z,100938.50
2022-09-12T19:16:59.572Z,100945.63
2022-09-12T19:19:30.430Z,100937.16
2022-09-12T19:22:01.244Z,100940.94
2022-09-12T19:24:31.908Z,100931.03
2022-09-12T19:27:02.611Z,100929.41
2022-09-12T19:29:33.402Z,100937.66
2022-09-12T19:32:04.414Z,100934.91
2022-09-12T19:34:35.273Z,100945.41
2022-09-12T19:37:06.829Z,100948.19
2022-09-12T19:39:37.555Z,100950.94
2022-09-12T19:42:08.246Z,100950.94
2022-09-12T19:44:38.932Z,100954.84
2022-09-12T19:47:09.592Z,100941.06
2022-09-12T19:49:40.333Z,100935.53
2022-09-12T19:52:13.399Z,100936.94
2022-09-12T19:54:46.437Z,100935.81
2022-09-12T19:57:17.264Z,100926.75
2022-09-12T19:59:48.918Z,100923.47
2022-09-12T20:02:19.807Z,100915.72
2022-09-12T20:04:50.616Z,100915.22
2022-09-12T20:07:21.864Z,100924.78
2022-09-12T20:09:52.836Z,100926.75
2022-09-12T20:12:23.851Z,100925.09
2022-09-12T20:14:54.558Z,100933.38
2022-09-12T20:17:25.216Z,100931.41
2022-09-12T20:19:55.922Z,100932.53
2022-09-12T20:22:26.939Z,100930.03
2022-09-12T20:24:57.620Z,100930.03
2022-09-12T20:27:28.703Z,100918.75
2022-09-12T20:30:00.939Z,100918.47
2022-09-12T20:32:32.318Z,100913.50
2022-09-12T20:35:03.069Z,100906.94
2022-09-12T20:37:34.009Z,100909.69
2022-09-12T20:40:05.564Z,100908.88
2022-09-12T20:42:35.963Z,100899.19
2022-09-12T20:45:07.944Z,100890.41
2022-09-12T20:47:38.785Z,100898.06
2022-09-12T20:50:09.790Z,100899.19
2022-09-12T20:52:40.554Z,100901.13
2022-09-12T20:55:12.101Z,100905.00
2022-09-12T20:57:42.358Z,100895.91
2022-09-12T21:00:14.041Z,100897.34
2022-09-12T21:02:44.897Z,100899.28
2022-09-12T21:05:15.801Z,100892.16
2022-09-12T21:07:46.603Z,100883.88
2022-09-12T21:10:17.673Z,100879.50
2022-09-12T21:12:48.467Z,100879.50
2022-09-12T21:15:19.279Z,100881.13
2022-09-12T21:17:49.974Z,100878.69
2022-09-12T21:20:20.941Z,100880.63
2022-09-12T21:22:51.609Z,100883.69
2022-09-12T21:25:22.376Z,100886.63
2022-09-12T21:27:53.170Z,100886.13
2022-09-12T21:30:24.074Z,100884.50
2022-09-12T21:32:54.880Z,100892.75
2022-09-12T21:35:25.583Z,100890.00
2022-09-12T21:37:56.571Z,100896.03
2022-09-12T21:40:27.319Z,100897.16
2022-09-12T21:42:58.156Z,100896.03
2022-09-12T21:45:29.072Z,100897.97
2022-09-12T21:48:00.264Z,100893.59
2022-09-12T21:50:31.172Z,100895.50
2022-09-12T21:53:01.961Z,100898.59
2022-09-12T21:55:32.961Z,100899.91
2022-09-12T21:58:03.585Z,100897.16
2022-09-12T22:00:34.710Z,100895.50
2022-09-12T22:03:06.110Z,100891.97
2022-09-12T22:05:39.306Z,100889.41
2022-09-12T22:08:16.530Z,100897.97
2022-09-12T22:10:47.635Z,100894.72
2022-09-12T22:13:19.517Z,100899.09
2022-09-12T22:15:59.716Z,100896.03
2022-09-12T22:18:32.376Z,100900.22
2022-09-12T22:21:08.193Z,100892.47
2022-09-12T22:23:58.106Z,100889.91
2022-09-12T22:26:32.856Z,100891.53
2022-09-12T22:29:08.081Z,100898.16
2022-09-12T22:31:40.448Z,100897.47
2022-09-12T22:34:14.969Z,100900.03
2022-09-12T22:36:47.163Z,100894.53
2022-09-12T22:39:18.598Z,100902.78
2022-09-12T22:41:49.876Z,100909.41
2022-09-12T22:44:20.605Z,100913.28
2022-09-12T22:46:52.643Z,100915.53
2022-09-12T22:49:23.606Z,100917.16
2022-09-12T22:51:56.102Z,100911.94
2022-09-12T22:54:30.744Z,100910.63
2022-09-12T22:57:01.917Z,100914.00
2022-09-12T22:59:33.717Z,100914.00
2022-09-12T23:02:07.464Z,100912.69
2022-09-12T23:04:40.358Z,100914.41
2022-09-12T23:07:12.166Z,100915.13
2022-09-12T23:09:42.945Z,100919.00
2022-09-12T23:12:18.221Z,100925.84
2022-09-12T23:14:50.078Z,100933.28
2022-09-12T23:17:20.863Z,100926.66
2022-09-12T23:19:52.114Z,100933.28
2022-09-12T23:22:23.112Z,100930.00
2022-09-12T23:24:54.074Z,100939.31
2022-09-12T23:27:25.886Z,100930.84
2022-09-12T23:29:56.919Z,100943.50
2022-09-12T23:32:28.506Z,100935.53
2022-09-12T23:35:00.155Z,100939.81
2022-09-12T23:37:32.259Z,100940.94
2022-09-12T23:40:03.214Z,100947.56
2022-09-12T23:42:34.112Z,100955.63
2022-09-12T23:45:09.250Z,100954.50
2022-09-12T23:47:45.564Z,100957.56
2022-09-12T23:50:18.511Z,100971.31
2022-09-12T23:52:49.606Z,100974.91
2022-09-12T23:55:24.062Z,100977.34
2022-09-12T23:57:55.831Z,100983.38
